KIOB

Details ICAO KIOB
Name MT STERLING MONTGOMERY CO
Region United States
Timezone America/New_York (UTC-4.0)
Plans Departing 8
Arriving 4
Stats Elevation 1,019 ft / 311 m (AMSL)
Location 38.058136° -83.979575°
Runways 1
Magnetic Variation 6.098° W
Sunrise 2018-05-22 10:21:32 UTC / 2018-05-22 06:21:32 Local
Sunset 2018-05-23 00:46:32 UTC / 2018-05-22 20:46:32 Local
Advertisement - Login to hide

Runways

ID Width Length Bearing (true) Bearing (mag) Surface Threshold Offset Overrun Length
03 75 ft / 23 m 5,007 ft / 1,526 m 27.04° 33.14° Asphalt 0 ft / 0 m 0 ft / 0 m
21 75 ft / 23 m 5,007 ft / 1,526 m 207.04° 213.14° Asphalt 0 ft / 0 m 0 ft / 0 m

Map

Weather


0- 5 10 15 20 25 30 35+ Temperature / ° C

Clouds and Precipitation
Forecast for 2018-05-22 18:00 UTC. Updated 4 hours ago

Ground ~20,000 ft ~40,000 ft Winds

METAR

KIOB 221955Z AUTO 20011G16KT 7SM -RA SCT009 BKN025 OVC030 21/19 A3006 RMK AO2 P0022

TAF

Not found

Frequencies

Recorded 120.67 MHz AWOS 3
Approach 120.15 MHz LEXINGTON APP/DEP
Unicom 122.80 MHz CTAF/UNICOM
Warning: Do not use this data for real-world aviation or navigation. No guarantee of current accuracy is given.